Date,TemperatureHighF,TemperatureAvgF,TemperatureLowF,DewpointHighF,DewpointAvgF,DewpointLowF,HumidityHigh,HumidityAvg,HumidityLow,PressureMaxIn,PressureMinIn,WindSpeedMaxMPH,WindSpeedAvgMPH,GustSpeedMaxMPH,PrecipitationSumIn
2013-1-5,37,33,30,24,22,21,69,65,56,29.82,29.70,4,1,4,0.00
2013-1-6,39,36,33,29,26,23,77,68,64,29.75,29.56,11,3,11,0.00
2013-1-7,36,33,24,28,25,17,77,72,60,30.00,29.75,11,3,11,0.00
2013-1-8,46,35,19,30,25,13,81,67,51,29.91,29.81,8,1,8,0.00
2013-1-9,46,39,27,39,32,21,85,77,61,30.02,29.77,8,3,8,0.01
2013-1-10,44,37,30,34,29,24,84,72,59,30.14,29.84,6,1,6,0.00
2013-1-11,53,49,42,51,42,28,98,77,54,29.85,29.55,8,2,8,0.11
2013-1-12,67,57,50,59,53,49,96,87,70,29.66,29.54,6,1,6,0.02
2013-1-13,70,63,57,56,53,50,93,71,59,29.54,29.44,13,3,13,0.14
2013-1-14,59,42,33,57,34,23,94,75,58,29.90,29.44,14,2,14,0.07
2013-1-15,34,31,27,29,23,20,86,72,65,29.91,29.61,7,1,7,0.01
2013-1-16,36,34,32,32,30,28,90,87,83,29.62,29.44,7,2,7,0.33
2013-1-17,36,33,31,29,27,26,83,77,69,29.73,29.56,12,2,12,0.00
2013-1-18,34,28,20,27,13,5,83,53,41,30.01,29.68,14,5,14,0.00
2013-1-19,54,44,33,23,16,6,46,33,24,29.81,29.42,13,6,13,0.00
2013-1-20,47,34,25,30,16,9,57,46,34,29.68,29.36,18,5,18,0.00
2013-1-21,28,25,14,17,11,-6,66,56,37,29.66,29.45,21,3,21,0.00
2013-1-22,15,11,8,0,-7,-10,53,43,35,29.80,29.58,21,6,21,0.00
2013-1-23,17,12,6,6,-3,-7,68,50,36,29.83,29.60,11,3,12,0.00
2013-1-24,24,16,10,8,2,-11,75,55,26,30.05,29.59,14,2,14,0.00
2013-1-25,22,16,11,14,6,-2,74,62,45,30.03,29.56,6,1,6,0.00
2013-1-26,29,23,17,20,14,7,78,70,61,29.98,29.63,8,2,8,0.00
2013-1-27,36,24,11,22,12,5,76,63,43,30.06,29.85,4,1,4,0.04
2013-1-28,51,41,30,50,37,21,96,88,65,29.87,29.59,8,3,8,0.25
2013-1-29,65,56,49,55,51,48,96,84,65,29.64,29.40,11,3,11,0.04
2013-1-30,72,60,49,55,51,45,94,72,52,29.40,28.86,22,5,22,0.69
2013-1-31,49,30,23,45,19,8,89,64,44,29.41,28.82,26,8,26,0.08
2013-2-1,24,17,11,17,3,-2,76,55,44,29.86,29.37,17,6,17,0.00
2013-2-2,25,18,10,18,8,-3,79,65,55,29.85,29.52,13,4,13,0.01
2013-2-3,29,24,18,22,17,8,81,75,64,29.57,29.36,11,2,11,0.00
2013-2-4,30,23,17,23,13,6,82,67,49,29.62,29.42,11,3,11,0.00
2013-2-5,33,29,27,28,25,22,87,83,76,29.51,29.39,6,1,6,0.00
2013-2-6,34,28,18,25,20,11,86,72,55,29.88,29.50,10,2,10,0.00
2013-2-7,43,30,16,28,20,10,79,66,53,29.85,29.55,10,2,10,0.12
2013-2-8,40,34,26,36,26,18,92,75,64,29.68,29.37,16,5,16,0.12
2013-2-9,35,26,22,18,15,12,72,61,44,29.92,29.68,14,3,14,0.00
2013-2-10,53,34,17,26,18,10,76,54,26,29.90,29.55,8,2,8,0.00
2013-2-11,64,50,39,48,35,25,93,62,26,29.55,29.24,28,6,28,0.07
2013-2-12,44,37,28,27,24,21,78,60,49,29.63,29.47,17,4,17,0.00
2013-2-13,42,32,25,32,26,20,91,78,55,29.49,29.24,4,1,4,0.01
2013-2-14,43,34,28,35,28,23,89,79,63,29.53,29.42,10,3,10,0.04
2013-2-15,42,35,28,34,28,23,90,76,59,29.59,29.47,11,3,11,0.00
2013-2-16,33,26,18,24,17,10,83,69,48,29.60,29.46,7,1,7,0.00
2013-2-17,25,20,16,16,8,-2,80,61,41,29.79,29.45,16,4,16,0.00
2013-2-18,44,28,9,30,12,-3,67,52,30,29.84,29.47,7,2,7,0.04
2013-2-19,49,38,26,38,28,11,89,69,43,29.49,29.25,24,6,24,0.07
2013-2-20,26,21,18,16,10,5,74,61,48,29.75,27.34,21,6,21,0.01
2013-2-21,28,22,19,15,11,8,71,63,49,29.88,29.71,14,3,14,0.00
2013-2-22,38,32,22,32,23,11,83,70,48,29.82,29.55,11,2,11,0.00
2013-2-23,48,38,33,37,32,28,86,79,66,29.56,29.41,8,1,8,0.00
2013-2-24,33,30,26,30,22,18,86,72,61,29.69,29.41,14,2,14,0.00
2013-2-25,44,33,24,24,20,18,79,61,44,29.77,29.61,8,1,8,0.00
2013-2-26,41,37,33,35,26,18,89,66,47,29.63,29.16,14,3,14,0.35
2013-2-27,43,38,34,38,35,30,95,88,77,29.27,29.15,17,3,17,0.21
2013-2-28,34,33,32,31,29,28,89,86,82,29.36,29.20,12,3,12,0.02
2013-3-1,34,31,27,29,24,18,86,76,65,29.52,29.36,10,3,10,0.02
2013-3-2,31,26,25,21,18,14,79,71,58,29.50,29.45,9,2,9,0.00
2013-3-3,31,26,23,20,17,12,79,68,56,29.55,29.46,14,4,14,0.00
2013-3-4,40,28,22,20,15,12,76,59,41,29.66,29.55,17,3,17,0.00
2013-3-5,49,34,20,24,17,11,76,53,26,29.64,29.26,9,2,9,0.02
2013-3-6,42,35,31,34,28,24,90,74,54,29.65,29.26,11,1,11,0.32
2013-3-7,43,36,33,31,27,24,82,70,50,29.82,29.64,11,2,11,0.01
2013-3-8,42,34,28,30,25,22,82,70,57,29.94,29.81,11,3,11,0.00
2013-3-9,64,39,22,36,24,18,86,57,27,29.95,29.74,13,1,13,0.84
2013-3-10,70,56,43,33,27,21,48,35,23,29.75,29.59,9,3,9,0.00
2013-3-11,64,57,52,51,35,27,98,45,26,29.61,29.32,15,4,15,0.07
2013-3-12,51,40,37,51,36,28,99,87,69,29.56,29.34,21,4,21,0.19
2013-3-13,40,33,28,32,26,17,96,78,51,29.66,29.48,23,6,23,0.02
2013-3-14,40,31,25,24,17,14,71,58,41,29.75,29.66,24,7,24,0.02
2013-3-15,50,39,28,38,27,17,89,62,50,29.68,29.39,24,4,24,0.00
2013-3-16,41,37,34,40,36,33,99,97,89,29.52,29.21,8,2,8,0.02
2013-3-17,39,34,29,33,24,20,92,66,51,29.74,29.51,8,2,8,0.00
2013-3-18,42,35,30,38,28,22,86,77,59,29.71,29.28,14,4,14,0.26
2013-3-19,49,39,31,42,27,14,99,66,31,29.53,29.27,33,8,33,0.08
2013-3-20,42,33,27,22,16,11,65,51,36,29.54,29.36,19,6,19,0.00
2013-3-21,31,25,18,19,11,4,80,56,36,29.46,29.40,17,6,17,0.00
2013-3-22,37,29,25,20,17,16,80,62,47,29.58,29.45,17,5,17,0.00
2013-3-23,50,33,20,25,20,15,82,60,35,29.59,29.53,56,2,56,0.00
2013-3-24,46,34,26,28,21,17,80,60,41,29.56,29.11,8,2,8,0.00
2013-3-25,37,33,31,33,30,25,94,89,69,29.30,29.04,8,1,8,0.37
2013-3-26,43,36,30,35,30,28,95,81,57,29.62,29.30,14,3,14,0.22
2013-3-27,44,36,31,31,29,24,93,78,50,29.71,29.61,17,5,17,0.04
2013-3-28,42,40,37,32,30,28,76,68,60,29.81,29.74,11,3,11,0.04
2013-3-29,56,43,35,33,27,20,81,56,28,29.81,29.71,17,3,17,0.00
2013-3-30,58,43,28,28,22,17,81,48,23,29.81,29.60,12,2,12,0.00
2013-3-31,51,47,40,47,38,22,99,73,42,29.61,29.31,10,3,10,0.11
2013-4-1,47,41,32,44,29,9,96,66,28,29.57,29.30,24,6,24,0.02
2013-4-2,42,33,28,23,14,8,77,46,31,29.74,29.57,17,5,17,0.00
2013-4-3,43,32,25,22,12,3,65,43,25,29.95,29.73,26,4,26,0.00
2013-4-4,57,39,20,21,14,6,72,41,22,29.93,29.54,8,2,8,0.00
2013-4-5,60,45,34,32,24,18,66,44,27,29.73,29.50,21,4,21,0.00
2013-4-6,63,44,26,23,19,10,78,43,22,29.84,29.61,11,2,11,0.00
2013-4-7,73,62,52,51,38,19,76,42,27,29.61,29.47,18,6,18,0.00
2013-4-8,78,63,47,51,47,43,95,59,33,29.63,29.50,16,3,16,0.00
2013-4-9,82,71,59,57,53,49,80,56,36,29.69,29.51,15,4,15,0.00
2013-4-10,83,71,58,62,57,52,99,63,43,29.59,29.41,23,4,23,0.24
2013-4-11,78,66,54,63,58,53,99,78,53,29.49,29.22,14,3,14,0.01
2013-4-12,69,60,46,61,52,35,99,76,46,29.44,29.14,23,6,23,0.33
2013-4-13,58,47,39,38,35,31,78,62,42,29.57,29.43,16,5,16,0.00
2013-4-14,65,50,33,40,32,27,83,55,30,29.73,29.58,9,2,9,0.00
2013-4-15,67,62,54,51,46,38,72,56,42,29.70,29.57,13,4,13,0.00
2013-4-16,82,67,57,61,55,50,99,68,44,29.80,29.62,26,4,26,0.48
2013-4-17,71,60,51,59,55,51,99,87,64,29.83,29.69,6,1,6,0.00
2013-4-18,88,73,62,64,58,55,85,63,41,29.71,29.42,12,5,12,0.00
2013-4-19,74,70,67,62,57,54,84,65,56,29.42,29.12,14,5,14,0.01
2013-5-4,72,60,46,45,42,38,81,54,32,29.81,29.68,4,1,4,0.00
2013-5-5,74,61,50,44,36,24,78,45,16,29.74,29.62,4,2,4,0.00
2013-5-6,70,60,47,55,48,40,85,68,53,29.67,29.61,4,2,4,0.00
2013-5-7,67,61,55,59,57,54,99,87,68,29.62,29.55,3,0,3,0.02
2013-5-8,72,60,52,58,53,48,99,80,43,29.58,29.49,5,1,5,0.27
2013-5-9,73,62,52,62,57,52,99,85,57,29.59,29.50,8,1,8,0.01
2013-5-10,76,62,58,66,60,55,99,92,63,29.61,29.42,6,2,6,0.17
2013-5-11,61,57,52,60,56,50,99,98,92,29.44,29.38,8,1,8,0.30
2013-5-12,54,48,41,52,35,26,98,61,37,29.62,29.42,21,5,21,0.01
2013-5-13,53,45,36,34,28,20,79,54,29,29.74,29.61,15,3,15,0.00
2013-5-14,61,48,32,44,36,29,94,66,45,29.76,29.50,12,1,12,0.00
2013-5-15,87,70,55,63,56,40,87,61,43,29.50,29.33,18,4,18,0.00
2013-5-16,80,70,61,65,58,47,99,70,33,29.58,29.39,10,2,10,0.18
2013-5-17,83,69,60,64,58,47,99,74,31,29.71,29.58,10,2,10,0.00
2013-5-18,82,68,55,63,58,53,96,74,46,29.73,29.64,8,1,8,0.00
2013-5-19,78,68,60,65,62,59,98,81,61,29.71,29.59,4,1,4,0.00
2013-5-20,87,78,67,70,67,64,95,71,49,29.65,29.53,8,2,8,0.06
2013-5-21,76,70,67,71,68,66,98,92,81,29.58,29.54,3,0,3,0.00
2013-5-22,43,36,30,35,30,28,95,82,58,29.71,29.37,9,3,9,0.24
2013-5-23,43,36,31,31,29,25,93,78,50,29.80,29.70,12,5,12,0.04
2013-5-24,42,37,32,32,29,27,91,74,60,29.90,29.76,10,4,10,0.04
2013-5-25,55,43,35,32,27,20,80,57,29,29.90,29.80,11,3,11,0.00
2013-5-26,56,43,28,28,22,18,80,48,24,29.90,29.73,9,2,9,0.00
2013-5-27,63,58,41,53,46,22,85,65,43,29.92,29.53,7,0,7,3.94
2013-5-28,78,65,54,70,60,50,99,86,63,29.79,29.68,8,2,8,0.21
2013-5-29,73,70,68,64,61,60,79,74,70,29.79,29.71,7,3,7,0.00
2013-5-30,86,76,65,69,65,62,90,71,46,29.88,29.77,5,1,5,0.00
2013-5-31,88,76,67,69,65,62,95,70,43,29.82,29.69,5,1,5,0.00
2013-6-1,87,79,66,70,67,64,99,67,54,29.72,29.54,17,2,17,0.01
2013-6-2,79,73,68,69,66,62,99,78,57,29.58,29.51,14,2,14,0.01
2013-6-3,69,63,55,66,58,43,99,84,63,29.74,29.57,10,2,10,0.01
2013-6-4,76,59,44,53,47,43,98,68,39,29.84,29.73,10,1,10,0.00
2013-6-5,81,66,52,64,56,50,94,72,49,29.81,29.63,9,1,9,0.00
2013-6-6,70,65,62,65,63,61,99,92,72,29.65,29.49,4,1,4,0.78
2013-6-7,68,64,60,66,63,58,99,95,88,29.53,29.43,11,2,11,0.01
2013-6-8,74,62,56,61,57,54,96,83,57,29.80,29.53,10,2,10,0.00
2013-6-9,81,69,57,66,62,57,99,79,55,29.85,29.72,8,1,8,0.00
2013-6-10,76,69,66,73,68,65,99,94,85,29.63,29.50,7,2,7,0.22
2013-6-11,79,69,64,69,65,63,99,90,63,29.59,29.49,11,2,11,0.06
2013-6-12,82,73,65,72,68,63,99,84,55,29.62,29.47,12,1,12,0.04
2013-6-13,74,68,62,73,64,56,99,87,72,29.48,29.22,14,4,14,1.25
2013-6-14,76,65,58,61,57,54,97,78,52,29.74,29.47,12,3,12,0.00
2013-6-15,79,66,55,59,54,46,99,70,36,29.81,29.69,11,1,11,0.01
2013-6-16,74,67,62,70,64,57,99,90,70,29.71,29.60,10,2,10,0.22
2013-6-17,82,72,66,69,65,57,99,80,49,29.67,29.59,11,1,11,0.12
2013-6-18,76,69,64,70,66,63,99,91,74,29.63,29.54,12,1,12,0.00
2013-6-19,80,67,57,65,54,42,99,68,31,29.83,29.62,10,2,10,0.00
2013-6-20,82,68,54,62,56,51,99,70,37,29.91,29.83,10,1,10,0.00
2013-6-21,88,71,57,66,60,55,99,71,36,29.95,29.84,7,0,7,0.00
2013-6-22,87,75,64,71,67,63,99,79,54,29.90,29.77,8,0,8,0.00
2013-6-23,90,77,67,72,68,64,96,74,48,29.86,29.76,10,1,10,0.00
2013-6-24,87,78,70,72,69,65,92,75,53,29.85,29.72,9,1,9,0.00
2013-6-25,87,75,66,72,68,60,99,81,57,29.77,29.60,21,2,21,0.43
2013-6-26,81,72,66,73,69,65,99,91,65,29.70,29.54,11,2,11,1.15
2013-6-27,75,70,68,73,70,67,99,97,89,29.54,29.36,12,1,12,0.27
2013-6-28,74,68,63,71,66,62,99,96,84,29.38,29.24,13,1,13,0.11
2013-6-29,78,69,63,69,65,62,99,88,65,29.42,29.27,13,1,13,0.00
2013-6-30,83,71,63,71,66,62,99,84,53,29.55,29.41,14,1,14,0.05
2013-7-1,82,72,67,72,68,66,99,91,70,29.66,29.52,11,1,11,0.59
2013-7-2,68,68,67,68,67,67,99,99,99,29.69,29.65,2,0,2,0.27
2013-7-3,84,75,70,72,70,67,98,85,67,29.87,29.77,4,0,4,0.33
2013-7-4,84,74,69,72,70,67,99,88,62,29.92,29.82,7,1,7,0.41
2013-7-5,84,76,69,73,70,68,99,84,65,29.88,29.81,7,1,7,0.00
2013-7-6,89,78,71,74,72,70,98,81,55,29.88,29.74,5,1,5,0.00
2013-7-7,79,73,70,74,70,69,99,91,72,29.81,29.72,2,1,2,0.13
2013-7-8,80,73,68,72,69,66,99,90,69,29.83,29.75,4,1,4,0.01
2013-7-9,81,72,68,76,71,68,99,95,84,29.80,29.68,13,2,13,0.72
2013-7-10,83,72,66,77,70,66,99,95,81,29.74,29.54,22,2,22,1.54
2013-7-11,79,70,64,69,65,60,99,86,55,29.69,29.59,7,1,7,0.00
2013-7-12,74,67,60,68,64,59,98,89,78,29.81,29.68,6,1,6,0.00
2013-7-13,84,72,64,71,67,63,99,84,58,29.93,29.78,6,1,6,0.00
2013-7-14,89,78,71,73,70,68,93,77,54,30.00,29.92,8,0,8,0.00
2013-7-15,91,79,71,73,70,68,92,76,51,30.04,29.93,8,0,8,0.00
2013-7-16,89,78,72,76,73,71,97,85,57,30.01,29.93,19,1,19,0.00
2013-7-17,88,77,72,77,74,71,99,90,65,29.99,29.86,8,0,8,0.00
2013-7-18,91,80,72,78,75,72,99,84,62,29.89,29.73,7,0,7,0.00
2013-7-19,87,78,74,78,75,71,99,89,68,29.74,29.60,14,2,14,0.00
2013-7-20,78,74,70,76,72,69,99,93,83,29.64,29.56,8,2,8,0.28
2013-7-21,82,74,69,73,70,68,99,89,72,29.69,29.61,8,0,8,0.00
2013-7-22,82,72,67,74,70,67,99,95,74,29.65,29.49,7,0,7,0.60
2013-7-23,83,71,65,72,68,63,99,91,60,29.50,29.42,12,1,12,0.12
2013-7-24,74,66,60,66,59,54,99,79,54,29.68,29.45,14,2,14,0.00
2013-7-25,79,64,54,60,55,51,98,76,46,29.77,29.67,9,2,9,0.00
2013-7-26,83,67,56,63,58,55,99,77,45,29.80,29.70,8,1,8,0.00
2013-7-27,71,67,62,70,66,61,99,97,85,29.71,29.56,7,0,7,0.53
2013-7-28,78,68,61,68,63,54,99,83,46,29.73,29.56,12,2,12,0.14
2013-7-29,74,64,56,61,58,53,97,80,52,29.88,29.73,12,2,12,0.00
2013-7-30,77,66,56,62,59,56,99,81,54,29.93,29.84,9,1,9,0.00
2013-7-31,78,67,59,68,64,59,99,89,58,29.85,29.66,8,0,8,0.00
2013-8-1,82,71,66,70,66,60,99,85,52,29.67,29.56,10,2,11,0.04
2013-8-2,77,69,62,65,62,54,98,79,48,29.69,29.61,14,2,14,0.00
2013-8-3,72,67,62,69,66,61,99,94,80,29.69,29.63,11,1,11,0.11
2013-8-4,75,65,57,62,58,52,99,80,48,29.78,29.68,11,2,11,0.00
2013-8-5,74,63,55,60,56,52,99,79,49,29.82,29.72,8,1,8,0.00
2013-8-6,83,68,56,65,59,55,99,76,45,29.73,29.67,8,1,8,0.00
2013-8-7,83,72,65,74,68,63,99,89,70,29.73,29.62,8,0,8,0.15
2013-8-8,83,74,67,76,71,66,99,92,75,29.69,29.62,9,1,9,0.02
2013-8-9,78,73,69,76,72,68,99,95,80,29.71,29.60,14,1,14,0.66
2013-8-10,80,71,65,69,66,61,99,85,62,29.79,29.71,9,0,9,0.06
2013-8-11,77,67,63,69,65,62,99,94,76,29.82,29.77,7,1,7,0.00
2013-8-12,80,74,68,70,68,64,99,81,63,29.76,29.59,7,1,7,0.01
2013-8-13,78,70,59,71,64,52,99,84,60,29.67,29.51,19,3,19,0.12
2013-8-14,64,56,51,54,52,51,99,88,71,29.77,29.67,13,2,13,0.01
2013-8-19,82,74,68,76,72,67,99,92,76,29.69,29.61,4,1,4,0.02
2013-8-20,77,72,66,75,71,65,99,95,81,29.73,29.61,7,1,7,0.66
2013-8-21,79,71,65,68,66,64,99,85,63,29.79,29.73,4,0,4,0.06
2013-8-22,81,71,63,70,67,62,99,88,61,29.82,29.71,8,1,8,0.20
2013-8-23,79,73,68,69,68,66,99,85,65,29.76,29.53,4,1,4,0.01
2013-8-24,77,67,53,71,62,51,99,84,63,29.67,29.51,9,3,9,0.13
2013-8-25,79,72,52,66,62,51,99,73,54,30.04,29.67,11,1,11,0.98
2013-8-26,81,71,62,70,65,61,97,83,63,29.94,29.72,11,2,11,0.00
2013-8-27,78,73,69,75,71,67,99,93,85,29.73,29.64,10,1,10,0.06
2013-8-28,75,72,69,75,72,69,99,98,97,29.66,29.49,11,1,11,1.32
2013-8-29,83,78,70,72,70,69,98,78,67,29.73,29.61,6,2,6,0.00
2013-8-30,83,74,66,74,70,66,99,88,70,29.72,29.55,7,1,7,0.00
2013-8-31,83,75,71,74,71,68,98,88,65,29.57,29.48,11,2,11,0.00
2013-9-1,78,74,71,73,71,69,98,91,83,29.56,29.49,8,1,8,0.02
2013-9-2,81,74,70,75,71,67,99,91,73,29.55,29.45,12,1,12,0.02
2013-9-3,72,67,60,67,61,54,99,82,56,29.73,29.52,13,3,13,0.00
2013-9-4,75,64,55,62,58,54,99,84,56,29.82,29.73,11,1,11,0.00
2013-9-5,73,64,60,62,59,52,98,85,49,29.83,29.76,14,2,14,0.00
2013-9-12,77,72,63,73,70,62,99,95,83,29.71,29.50,7,1,7,0.44
2013-9-13,67,60,52,62,55,47,99,86,68,29.70,29.50,11,4,11,0.04
2013-9-14,62,54,50,50,48,43,98,80,53,29.84,29.70,6,1,6,0.00
2013-9-15,69,58,46,58,53,45,99,86,64,29.86,29.74,4,0,4,0.00
2013-9-16,69,61,53,59,56,52,99,84,61,29.96,29.74,8,2,8,0.24
2013-9-17,66,56,46,53,49,45,99,79,48,30.03,29.92,4,1,4,0.00
2013-9-18,71,59,47,56,52,45,99,81,47,29.92,29.78,2,0,2,0.00
2013-9-19,73,64,59,66,61,56,99,89,67,29.83,29.72,7,0,7,0.00
2013-9-20,79,68,59,71,65,59,99,90,73,29.73,29.55,8,1,8,0.00
2013-9-21,71,65,60,69,64,60,99,96,85,29.55,29.38,21,1,21,1.11
2013-9-22,63,58,53,60,53,47,99,86,61,29.69,29.48,11,2,11,0.02
2013-9-23,56,52,46,51,47,41,99,84,64,29.81,29.68,8,1,8,0.00
2013-9-24,68,52,39,52,46,38,99,82,50,29.78,29.64,7,1,7,0.00
2013-9-25,72,58,46,56,51,45,99,79,42,29.66,29.56,5,1,5,0.00
2013-9-26,73,60,49,56,52,45,99,78,41,29.75,29.61,7,1,7,0.00
2013-9-27,73,60,50,58,54,50,99,82,52,29.86,29.75,6,0,6,0.00
2013-9-28,70,60,51,58,54,50,99,83,58,29.93,29.83,4,1,4,0.00
2013-9-29,72,61,53,59,54,50,93,79,57,29.83,29.69,8,0,8,0.00
2013-9-30,69,62,53,64,59,52,99,90,79,29.73,29.66,7,0,7,0.00
2013-10-1,76,66,60,64,61,60,99,85,61,29.77,29.69,11,1,11,0.00
2013-10-2,78,68,60,68,63,60,99,87,61,29.79,29.73,10,1,10,0.00
2013-10-3,77,69,62,68,65,61,99,87,68,29.80,29.72,9,1,9,0.00
2013-10-4,79,71,66,70,68,65,99,90,68,29.81,29.73,11,1,11,0.00
2013-10-5,82,72,67,71,68,66,98,87,63,29.79,29.67,14,1,14,0.00
2013-10-6,84,74,68,68,65,60,97,74,47,29.68,29.48,7,1,7,0.00
2013-10-7,74,59,49,63,52,43,99,78,56,29.78,29.39,17,3,17,0.28
2013-10-8,65,53,44,51,46,43,99,79,47,29.95,29.78,9,1,9,0.00
2013-10-9,66,54,43,49,44,40,98,74,39,29.97,29.88,7,1,7,0.00
2013-10-10,66,56,47,52,47,43,91,74,50,29.88,29.75,8,1,8,0.00
2013-10-11,58,55,52,58,54,49,99,96,84,29.75,29.71,7,1,7,0.41
2013-10-12,72,63,54,64,59,53,99,89,73,29.85,29.71,5,0,5,0.00
2013-10-13,70,63,59,62,59,56,99,89,70,29.93,29.83,5,0,5,0.07
2013-10-14,64,60,58,60,59,57,99,95,84,29.95,29.89,7,1,7,0.00
2013-10-15,70,62,53,61,58,52,99,86,68,29.89,29.67,3,0,3,0.00
2013-10-16,62,60,58,56,55,54,90,84,75,29.68,29.66,2,0,2,0.00
2013-10-25,45,38,32,36,33,30,93,82,55,29.97,29.79,4,2,4,0.00
2013-10-26,50,42,33,32,29,25,84,63,38,29.89,29.56,8,4,8,0.00
2013-10-27,51,44,37,37,33,30,89,68,44,29.76,29.63,8,2,8,0.00
2013-10-28,58,44,32,40,35,31,94,72,37,29.93,29.75,4,0,4,0.00
2013-10-29,59,47,36,42,38,34,99,73,43,30.01,29.91,4,0,4,0.00
2013-10-30,64,53,43,56,48,40,92,81,62,29.90,29.78,3,0,3,0.00
2013-10-31,68,63,58,60,58,55,99,84,67,29.77,29.20,9,3,9,0.08
2013-11-1,73,59,51,57,48,41,96,69,44,29.39,29.08,23,5,23,0.15
2013-11-2,54,50,45,46,43,40,91,77,63,29.61,29.34,50,3,50,0.01
2013-11-3,50,42,33,43,33,24,91,70,47,30.08,29.61,11,3,11,0.07
2013-11-4,34,30,28,26,23,20,85,76,56,30.17,30.08,4,0,4,0.00
2013-11-7,62,47,40,58,41,25,99,82,53,29.78,29.55,11,5,11,0.57
2013-11-8,44,38,32,32,27,23,79,65,46,29.93,29.73,10,4,10,0.00
2013-11-9,56,44,28,33,25,19,91,55,26,29.93,29.62,10,4,10,0.00
2013-11-10,53,46,37,37,32,28,70,58,39,29.91,29.63,14,6,14,0.00
2013-11-11,49,41,32,42,31,27,99,68,45,29.91,29.69,11,3,11,0.04
2013-11-12,39,31,28,39,24,15,99,77,47,30.08,29.72,7,3,7,0.05
2013-11-13,38,32,24,23,20,16,85,61,45,30.14,30.00,14,5,14,0.01
2013-11-14,51,38,29,22,19,16,73,49,26,30.00,29.83,15,5,15,0.01
2013-11-15,57,49,42,41,22,16,79,37,23,29.87,29.78,13,4,13,0.00
2013-11-16,64,53,39,49,45,39,99,76,54,29.89,29.71,8,2,8,0.00
2013-11-17,65,60,53,60,54,47,96,83,70,29.72,29.24,16,4,16,0.37
2013-11-18,58,50,39,52,34,25,88,55,37,29.70,29.33,27,8,27,0.00
2013-11-19,39,36,30,28,24,22,74,62,56,30.02,29.70,16,3,16,0.00
2013-11-20,50,36,25,23,17,10,82,49,24,30.09,30.00,8,2,8,0.00
2013-11-21,59,46,33,43,30,16,73,56,38,30.06,29.88,8,2,8,0.00
2013-11-22,54,51,38,53,48,34,99,92,68,29.88,29.71,13,4,13,0.19
2013-11-23,40,32,21,34,21,3,88,65,43,29.95,29.76,24,6,24,0.00
2013-11-24,27,20,15,9,6,1,67,54,38,30.14,29.94,19,7,19,0.00
2013-11-25,39,27,15,29,6,2,90,43,24,30.11,29.85,16,3,16,0.00
2013-11-26,37,34,31,36,33,29,98,96,90,29.89,29.36,8,1,8,1.13
2013-11-27,36,30,23,35,26,13,99,85,62,29.74,29.35,20,6,20,0.04
2013-11-28,30,25,18,19,14,8,74,62,44,30.05,29.75,16,4,16,0.00
2013-11-29,38,30,25,22,18,14,77,61,44,30.26,30.04,9,2,9,0.01
2013-11-30,41,32,25,25,20,15,71,60,45,30.24,29.87,6,2,6,0.01
2013-12-1,47,41,31,32,27,23,74,58,47,29.87,29.64,11,3,11,0.00
2013-12-2,53,44,37,37,34,30,89,68,53,29.64,29.49,9,1,9,0.00
2013-12-3,58,45,38,45,39,36,99,81,50,29.58,29.51,8,1,8,0.00
2013-12-4,62,50,37,48,42,35,97,75,56,29.67,29.56,6,1,6,0.00
2013-12-5,68,59,43,61,54,42,99,84,63,29.69,29.55,15,3,15,0.53
2013-12-6,43,36,30,42,34,30,99,95,85,29.90,29.67,9,2,9,0.53
2013-12-7,32,28,21,30,22,14,97,79,62,30.19,29.88,8,1,8,0.00
2013-12-8,34,25,19,30,18,10,91,75,66,30.18,29.72,8,1,8,0.01
2013-12-9,41,37,32,41,33,25,99,88,74,29.77,29.62,17,4,17,0.11
2013-12-10,32,28,23,25,17,7,85,66,41,29.89,29.66,16,5,16,0.00
2013-12-11,31,25,19,21,12,8,82,57,43,29.98,29.85,20,4,20,0.00
2013-12-12,24,20,14,12,4,-2,65,49,35,30.08,29.88,17,6,17,0.00
2013-12-13,38,27,20,20,11,3,65,49,41,29.90,29.83,12,3,12,0.00
2013-12-14,40,34,29,40,29,17,99,82,50,29.88,29.33,8,1,8,0.17
2013-12-15,42,31,23,41,25,7,99,77,49,29.66,29.28,21,7,21,0.01
2013-12-16,26,23,20,20,12,7,78,64,50,29.78,29.66,16,4,16,0.00
2013-12-17,36,32,26,32,28,20,96,82,71,29.68,29.58,18,2,18,0.07
2013-12-18,31,28,25,25,20,15,86,71,63,29.83,29.67,14,4,14,0.00
2013-12-19,56,45,30,36,26,11,66,47,34,29.76,29.69,17,5,17,0.01
2013-12-20,58,53,45,51,37,23,93,59,32,29.69,29.57,11,4,12,0.06
2013-12-21,64,60,57,61,55,49,99,86,69,29.58,29.37,11,4,11,0.83
2013-12-22,72,62,56,61,55,49,97,79,59,29.63,29.27,21,5,21,0.17
2013-12-23,57,41,32,50,36,20,99,84,61,29.92,29.61,15,4,15,0.19
2013-12-24,32,24,14,23,12,2,84,60,39,30.13,29.86,19,3,19,0.00
2013-12-25,30,21,13,18,9,4,71,60,44,30.12,29.85,1,0,1,0.00
2013-12-26,37,31,27,28,20,11,92,66,44,29.98,29.78,17,2,17,0.02
2013-12-27,44,34,25,26,19,11,65,54,46,30.00,29.91,10,0,10,0.00
2013-12-28,53,43,35,29,23,17,53,45,37,29.91,29.72,11,2,11,0.00
2013-12-29,48,42,39,42,36,20,99,82,35,29.73,29.32,13,2,13,0.53
2013-12-30,41,29,23,40,22,11,97,75,58,29.82,29.50,17,2,17,0.01
2013-12-31,27,25,22,22,16,11,85,70,58,29.94,29.71,23,2,23,0.00
2014-1-1,40,31,27,25,21,15,79,65,52,29.95,29.69,8,0,8,0.00
2014-1-2,32,26,13,28,22,5,95,81,73,29.69,29.32,6,0,6,0.00